<?xml version='1.0' encoding='UTF-8'?><gpx version="1.1" creator="JPX - https://github.com/jenetics/jpx" xmlns="http://www.topografix.com/GPX/1/1"><trk><trkseg><trkpt lat="45.6659836" lon="11.5623841"><ele>80.0</ele><time>2026-04-09T11:28:21.897Z</time></trkpt><trkpt lat="45.6660062" lon="11.5620511"><ele>80.0</ele><time>2026-04-09T11:28:26.661Z</time></trkpt><trkpt lat="45.6670508" lon="11.5618629"><ele>80.66666666666667</ele><time>2026-04-09T11:28:42.674Z</time></trkpt><trkpt lat="45.6672556" lon="11.5618356"><ele>81.33333333333333</ele><time>2026-04-09T11:28:48.935Z</time></trkpt><trkpt lat="45.6673089" lon="11.5619833"><ele>82.0</ele><time>2026-04-09T11:28:51.138Z</time></trkpt><trkpt lat="45.6676077" lon="11.5620305"><ele>81.0</ele><time>2026-04-09T11:28:56.457Z</time></trkpt><trkpt lat="45.6684507" lon="11.5616974"><ele>81.33333333333333</ele><time>2026-04-09T11:29:05.472Z</time></trkpt><trkpt lat="45.6686894" lon="11.5615999"><ele>81.66666666666666</ele><time>2026-04-09T11:29:08.87Z</time></trkpt><trkpt lat="45.6687874" lon="11.5615579"><ele>82.0</ele><time>2026-04-09T11:29:15.816Z</time></trkpt><trkpt lat="45.6689774" lon="11.561517"><ele>82.0</ele><time>2026-04-09T11:29:18.197Z</time></trkpt><trkpt lat="45.6691246" lon="11.5614882"><ele>82.0</ele><time>2026-04-09T11:29:19.857Z</time></trkpt><trkpt lat="45.6695661" lon="11.561322"><ele>85.0</ele><time>2026-04-09T11:29:25.49Z</time></trkpt><trkpt lat="45.6724792" lon="11.5588263"><ele>89.0</ele><time>2026-04-09T11:29:54.648Z</time></trkpt><trkpt lat="45.6762411" lon="11.5555391"><ele>92.0</ele><time>2026-04-09T11:32:03.098Z</time></trkpt><trkpt lat="45.6787429" lon="11.5518024"><ele>93.0</ele><time>2026-04-09T11:32:19.706Z</time></trkpt><trkpt lat="45.6795718" lon="11.5527395"><ele>93.0</ele><time>2026-04-09T11:32:40.915Z</time></trkpt><trkpt lat="45.6801518" lon="11.5525901"><ele>93.5</ele><time>2026-04-09T11:32:59.224Z</time></trkpt><trkpt lat="45.6803821" lon="11.5524676"><ele>94.0</ele><time>2026-04-09T11:33:04.686Z</time></trkpt><trkpt lat="45.6846071" lon="11.5483941"><ele>101.0</ele><time>2026-04-09T11:34:39.439Z</time></trkpt><trkpt lat="45.690853" lon="11.5488658"><ele>98.0</ele><time>2026-04-09T11:35:38.715Z</time></trkpt><trkpt lat="45.6915671" lon="11.5517389"><ele>107.0</ele><time>2026-04-09T11:36:24.777Z</time></trkpt><trkpt lat="45.6995038" lon="11.5460832"><ele>114.0</ele><time>2026-04-09T11:38:07.454Z</time></trkpt><trkpt lat="45.7072911" lon="11.5409208"><ele>116.0</ele><time>2026-04-09T11:41:10.325Z</time></trkpt><trkpt lat="45.7098801" lon="11.5432811"><ele>115.0</ele><time>2026-04-09T11:41:52.428Z</time></trkpt><trkpt lat="45.7186838" lon="11.5399288"><ele>115.0</ele><time>2026-04-09T11:44:20.794Z</time></trkpt><trkpt lat="45.718858" lon="11.5398475"><ele>115.0</ele><time>2026-04-09T11:44:21.894Z</time></trkpt><trkpt lat="45.7189885" lon="11.539793"><ele>115.0</ele><time>2026-04-09T11:44:22.893Z</time></trkpt><trkpt lat="45.719147" lon="11.539744"><ele>115.0</ele><time>2026-04-09T11:44:23.894Z</time></trkpt><trkpt lat="45.719292" lon="11.5397049"><ele>115.0</ele><time>2026-04-09T11:44:24.892Z</time></trkpt><trkpt lat="45.7194156" lon="11.5396665"><ele>115.0</ele><time>2026-04-09T11:44:25.894Z</time></trkpt><trkpt lat="45.7195242" lon="11.5396254"><ele>115.0</ele><time>2026-04-09T11:44:26.894Z</time></trkpt><trkpt lat="45.7196114" lon="11.5395902"><ele>115.33333333333334</ele><time>2026-04-09T11:44:27.893Z</time></trkpt><trkpt lat="45.7196884" lon="11.5395571"><ele>115.66666666666667</ele><time>2026-04-09T11:44:28.892Z</time></trkpt><trkpt lat="45.7197595" lon="11.5395234"><ele>116.0</ele><time>2026-04-09T11:44:29.893Z</time></trkpt><trkpt lat="45.719826" lon="11.5394934"><ele>116.33333333333334</ele><time>2026-04-09T11:44:30.892Z</time></trkpt><trkpt lat="45.7199478" lon="11.5394518"><ele>116.66666666666667</ele><time>2026-04-09T11:44:32.893Z</time></trkpt><trkpt lat="45.7200104" lon="11.5394345"><ele>117.0</ele><time>2026-04-09T11:44:33.892Z</time></trkpt><trkpt lat="45.720129" lon="11.5394119"><ele>114.0</ele><time>2026-04-09T11:44:35.893Z</time></trkpt><trkpt lat="45.7202118" lon="11.53939"><ele>111.0</ele><time>2026-04-09T11:44:37.893Z</time></trkpt><trkpt lat="45.7438506" lon="11.5229176"><ele>130.0</ele><time>2026-04-09T11:53:26.893Z</time></trkpt><trkpt lat="45.7438007" lon="11.5230939"><ele>149.0</ele><time>2026-04-09T11:54:22.762Z</time></trkpt><trkpt lat="45.744453" lon="11.5231961"><ele>160.0</ele><time>2026-04-09T11:55:23.151Z</time></trkpt><trkpt lat="45.745509" lon="11.5232728"><ele>160.0</ele><time>2026-04-09T11:55:30.5Z</time></trkpt><trkpt lat="45.7460315" lon="11.523521"><ele>169.0</ele><time>2026-04-09T11:55:36.136Z</time></trkpt><trkpt lat="45.7467529" lon="11.5245717"><ele>168.0</ele><time>2026-04-09T11:55:41.512Z</time></trkpt><trkpt lat="45.7474958" lon="11.5253068"><ele>180.0</ele><time>2026-04-09T11:55:48.924Z</time></trkpt><trkpt lat="45.7479036" lon="11.5256753"><ele>193.0</ele><time>2026-04-09T11:55:55.3Z</time></trkpt><trkpt lat="45.7494034" lon="11.5242072"><ele>201.0</ele><time>2026-04-09T11:56:10.616Z</time></trkpt><trkpt lat="45.7539879" lon="11.5226129"><ele>220.0</ele><time>2026-04-09T11:57:02.158Z</time></trkpt><trkpt lat="45.7598938" lon="11.5225494"><ele>221.0</ele><time>2026-04-09T11:58:02.384Z</time></trkpt><trkpt lat="45.7578397" lon="11.5191297"><ele>297.0</ele><time>2026-04-09T11:58:52.176Z</time></trkpt><trkpt lat="45.761783" lon="11.5180801"><ele>319.0</ele><time>2026-04-09T11:59:32.994Z</time></trkpt><trkpt lat="45.7632257" lon="11.5199078"><ele>319.0</ele><time>2026-04-09T12:00:18.527Z</time></trkpt></trkseg><trkseg><trkpt lat="45.7633023" lon="11.5107817"><ele>177.0</ele><time>2026-04-09T12:44:54.366Z</time></trkpt><trkpt lat="45.7635381" lon="11.5096981"><ele>173.0</ele><time>2026-04-09T12:45:01.628Z</time></trkpt><trkpt lat="45.7638885" lon="11.5091924"><ele>178.0</ele><time>2026-04-09T12:45:06.979Z</time></trkpt><trkpt lat="45.7646563" lon="11.5084846"><ele>192.0</ele><time>2026-04-09T12:45:13.974Z</time></trkpt><trkpt lat="45.7656351" lon="11.5064555"><ele>195.0</ele><time>2026-04-09T12:45:20.851Z</time></trkpt><trkpt lat="45.7658823" lon="11.5024064"><ele>240.0</ele><time>2026-04-09T12:45:41.253Z</time></trkpt><trkpt lat="45.7661168" lon="11.4984345"><ele>210.0</ele><time>2026-04-09T12:45:46.374Z</time></trkpt><trkpt lat="45.7659103" lon="11.4968641"><ele>211.0</ele><time>2026-04-09T12:46:04.299Z</time></trkpt><trkpt lat="45.7659503" lon="11.4944289"><ele>225.0</ele><time>2026-04-09T12:46:19.209Z</time></trkpt><trkpt lat="45.7649684" lon="11.4801775"><ele>270.0</ele><time>2026-04-09T12:48:20.062Z</time></trkpt><trkpt lat="45.7689449" lon="11.4652079"><ele>244.0</ele><time>2026-04-09T12:50:19.471Z</time></trkpt><trkpt lat="45.7704651" lon="11.4621483"><ele>246.5</ele><time>2026-04-09T12:51:27.265Z</time></trkpt><trkpt lat="45.7704348" lon="11.4615474"><ele>249.0</ele><time>2026-04-09T12:51:32.704Z</time></trkpt><trkpt lat="45.7734212" lon="11.4582123"><ele>252.0</ele><time>2026-04-09T12:52:19.614Z</time></trkpt><trkpt lat="45.7734851" lon="11.4562982"><ele>293.0</ele><time>2026-04-09T12:52:34.191Z</time></trkpt><trkpt lat="45.7797543" lon="11.4422452"><ele>301.0</ele><time>2026-04-09T12:54:19.034Z</time></trkpt><trkpt lat="45.7815613" lon="11.4374261"><ele>312.0</ele><time>2026-04-09T12:54:54.353Z</time></trkpt><trkpt lat="45.7821066" lon="11.4385726"><ele>312.0</ele><time>2026-04-09T12:56:46.695Z</time></trkpt><trkpt lat="45.7821769" lon="11.4380203"><ele>312.0</ele><time>2026-04-09T12:56:52.289Z</time></trkpt><trkpt lat="45.78283" lon="11.4376097"><ele>332.0</ele><time>2026-04-09T12:57:04.672Z</time></trkpt><trkpt lat="45.7829274" lon="11.4363731"><ele>329.0</ele><time>2026-04-09T12:57:11.065Z</time></trkpt><trkpt lat="45.7829151" lon="11.4374814"><ele>329.0</ele><time>2026-04-09T12:57:17.491Z</time></trkpt><trkpt lat="45.7829767" lon="11.4377099"><ele>329.0</ele><time>2026-04-09T12:57:25.398Z</time></trkpt><trkpt lat="45.7847352" lon="11.4374417"><ele>533.0</ele><time>2026-04-09T12:58:01.911Z</time></trkpt><trkpt lat="45.7895784" lon="11.4368259"><ele>644.0</ele><time>2026-04-09T13:08:14.89Z</time></trkpt><trkpt lat="45.7921532" lon="11.4386691"><ele>644.0</ele><time>2026-04-09T13:14:27.55Z</time></trkpt><trkpt lat="45.7921983" lon="11.4382392"><ele>644.0</ele><time>2026-04-09T13:15:28.891Z</time></trkpt><trkpt lat="45.7920492" lon="11.4374045"><ele>626.5</ele><time>2026-04-09T13:20:53.889Z</time></trkpt><trkpt lat="45.7916388" lon="11.4374237"><ele>609.0</ele><time>2026-04-09T13:25:27.16Z</time></trkpt><trkpt lat="45.7917877" lon="11.4375387"><ele>200.0</ele><time>2026-04-09T13:25:29.55Z</time></trkpt><trkpt lat="45.7685376" lon="11.4499822"><ele>646.0</ele><time>2026-04-09T13:40:24.618Z</time></trkpt><trkpt lat="45.7941275" lon="11.4345748"><ele>646.0</ele><time>2026-04-09T13:49:23.195Z</time></trkpt><trkpt lat="45.7939603" lon="11.4345877"><ele>646.0</ele><time>2026-04-09T13:50:03.886Z</time></trkpt></trkseg></trk></gpx>